Time;durP1;ratioP1;P1;durP2;ratioP2;P2;SDS_P1;SDS_P2;PMS_P1;PMS_P2;Temp;Humidity;BMP_temperature;BMP_pressure;BME280_temperature;BME280_humidity;BME280_pressure;Samples;Min_cycle;Max_cycle;Signal;HPM_P1;HPM_P2
2022/03/28 00:00:19;;;;;;;492.95;379.20;;;;;;;9.27;52.64;102120.28;690818;28;21546;-65
2022/03/28 00:00:40;;;;;;;493.40;379.45;;;;;;;9.27;52.44;102120.28;689604;28;45358;-65
2022/03/28 00:01:02;;;;;;;494.50;384.00;;;;;;;9.27;52.35;102122.97;690942;28;21495;-65
2022/03/28 00:01:23;;;;;;;493.50;384.48;;;;;;;9.27;52.29;102114.88;690103;28;47000;-65
2022/03/28 00:01:44;;;;;;;493.42;383.23;;;;;;;9.29;52.11;102120.13;690366;28;22363;-65
2022/03/28 00:02:06;;;;;;;494.08;384.95;;;;;;;9.30;52.33;102116.47;690415;28;23441;-65
2022/03/28 00:02:28;;;;;;;494.42;383.92;;;;;;;9.31;52.33;102119.03;689321;28;46317;-65
2022/03/28 00:02:49;;;;;;;494.10;385.33;;;;;;;9.32;52.32;102117.16;690000;28;44407;-65
2022/03/28 00:03:11;;;;;;;495.27;386.02;;;;;;;9.31;52.25;102116.31;690799;28;23620;-65
2022/03/28 00:03:32;;;;;;;494.40;384.35;;;;;;;9.33;52.39;102114.34;690001;28;44137;-65
2022/03/28 00:03:54;;;;;;;493.95;388.15;;;;;;;9.33;52.19;102117.03;690931;28;21519;-65
2022/03/28 00:04:15;;;;;;;496.35;394.23;;;;;;;9.34;52.18;102113.34;689636;28;46245;-65
2022/03/28 00:04:36;;;;;;;495.98;395.67;;;;;;;9.35;52.11;102115.03;690849;28;22366;-65
2022/03/28 00:04:57;;;;;;;495.55;395.75;;;;;;;9.35;52.41;102114.19;691224;28;23430;-65
2022/03/28 00:05:19;;;;;;;497.40;399.95;;;;;;;9.35;52.12;102117.75;691126;28;22384;-65
2022/03/28 00:05:40;;;;;;;497.20;401.33;;;;;;;9.36;52.33;102114.06;690121;28;46655;-65
2022/03/28 00:06:03;;;;;;;497.33;402.48;;;;;;;9.38;52.28;102113.94;691065;28;21324;-65
2022/03/28 00:06:25;;;;;;;499.23;402.65;;;;;;;9.37;52.28;102115.78;690868;28;16654;-65
2022/03/28 00:06:47;;;;;;;499.35;402.65;;;;;;;9.36;52.23;102116.75;689508;28;44367;-65
2022/03/28 00:07:08;;;;;;;495.65;398.45;;;;;;;9.35;52.09;102115.03;689910;28;47271;-65
2022/03/28 00:07:29;;;;;;;497.70;402.60;;;;;;;9.37;52.34;102121.19;690681;28;22378;-65
2022/03/28 00:07:50;;;;;;;497.60;402.63;;;;;;;9.37;52.20;102117.59;691227;28;24506;-65
2022/03/28 00:08:12;;;;;;;496.15;396.58;;;;;;;9.32;52.03;102114.47;690481;28;22405;-65
2022/03/28 00:08:33;;;;;;;496.58;396.38;;;;;;;9.33;52.08;102114.34;689899;28;46340;-65
2022/03/28 00:08:54;;;;;;;494.73;392.45;;;;;;;9.33;52.20;102113.50;690771;28;21120;-65
2022/03/28 00:09:15;;;;;;;493.33;386.77;;;;;;;9.34;52.25;102112.47;690457;28;22490;-65
2022/03/28 00:09:38;;;;;;;495.73;385.23;;;;;;;9.34;52.40;102117.88;690228;28;23472;-65
2022/03/28 00:09:59;;;;;;;498.05;393.05;;;;;;;9.34;52.24;102117.88;690668;28;46411;-65
2022/03/28 00:10:20;;;;;;;493.92;389.35;;;;;;;9.35;52.05;102119.59;691179;28;32650;-65
2022/03/28 00:10:41;;;;;;;496.85;397.85;;;;;;;9.34;52.23;102117.88;691320;28;23406;-65
2022/03/28 00:11:02;;;;;;;496.38;395.35;;;;;;;9.34;52.46;102120.56;691607;28;21556;-65
2022/03/28 00:11:26;;;;;;;495.13;396.35;;;;;;;9.30;52.50;102116.47;691363;28;21536;-65
2022/03/28 00:11:48;;;;;;;496.60;398.80;;;;;;;9.33;52.47;102118.88;688033;28;93159;-65
2022/03/28 00:12:10;;;;;;;483.45;331.27;;;;;;;9.32;52.08;102117.16;691037;28;22436;-65
2022/03/28 00:12:32;;;;;;;474.83;283.50;;;;;;;9.32;52.40;102112.63;690000;28;69432;-65
2022/03/28 00:12:54;;;;;;;474.60;288.05;;;;;;;9.32;52.33;102118.00;690419;28;46295;-65
2022/03/28 00:13:15;;;;;;;480.52;318.45;;;;;;;9.34;52.49;102117.88;690441;28;45317;-65
2022/03/28 00:13:36;;;;;;;491.73;371.73;;;;;;;9.35;52.16;102114.19;690807;28;21524;-65
2022/03/28 00:13:58;;;;;;;490.33;372.80;;;;;;;9.35;52.43;102115.03;691804;28;21527;-65
2022/03/28 00:14:20;;;;;;;489.53;368.83;;;;;;;9.35;52.36;102120.44;690400;28;21392;-65
2022/03/28 00:14:41;;;;;;;488.25;363.75;;;;;;;9.38;52.33;102120.16;690686;28;46634;-65
2022/03/28 00:15:02;;;;;;;487.58;364.40;;;;;;;9.38;52.01;102114.78;690771;28;46558;-65
2022/03/28 00:15:23;;;;;;;490.42;373.85;;;;;;;9.38;52.29;102120.16;691532;28;20915;-65
2022/03/28 00:15:45;;;;;;;492.80;381.63;;;;;;;9.38;52.13;102124.72;692470;28;1331;-65
2022/03/28 00:16:06;;;;;;;492.27;376.92;;;;;;;9.40;52.30;102127.28;690955;28;45245;-65
2022/03/28 00:16:27;;;;;;;491.35;372.23;;;;;;;9.38;52.17;102116.63;690593;28;23401;-65
2022/03/28 00:16:50;;;;;;;492.52;373.77;;;;;;;9.38;51.98;102120.16;690565;28;22403;-65
2022/03/28 00:17:11;;;;;;;491.70;374.70;;;;;;;9.36;52.02;102110.53;690555;28;47433;-65
2022/03/28 00:17:32;;;;;;;492.58;378.38;;;;;;;9.36;52.26;102114.06;690670;28;46323;-65
2022/03/28 00:17:53;;;;;;;493.45;381.90;;;;;;;9.35;52.17;102114.19;691383;28;22462;-65
2022/03/28 00:18:15;;;;;;;493.10;377.58;;;;;;;9.31;52.06;102110.94;691217;28;22415;-65
2022/03/28 00:18:37;;;;;;;494.70;386.27;;;;;;;9.32;52.14;102115.31;689860;28;46297;-65
2022/03/28 00:18:58;;;;;;;495.08;391.77;;;;;;;9.31;52.27;102110.94;690963;28;46387;-65
2022/03/28 00:19:20;;;;;;;494.70;394.00;;;;;;;9.30;52.35;102109.22;691691;28;23421;-65
2022/03/28 00:19:41;;;;;;;497.05;390.77;;;;;;;9.32;52.15;102115.31;690072;28;46334;-65
2022/03/28 00:20:03;;;;;;;496.58;392.40;;;;;;;9.29;52.18;102106.66;691687;28;23470;-65
2022/03/28 00:20:24;;;;;;;497.75;399.40;;;;;;;9.30;52.19;102108.38;690209;28;46377;-65
2022/03/28 00:20:47;;;;;;;498.05;400.15;;;;;;;9.30;52.26;102113.75;690783;28;22386;-65
2022/03/28 00:21:09;;;;;;;494.73;391.58;;;;;;;9.30;52.56;102111.91;689932;28;67507;-65
2022/03/28 00:21:30;;;;;;;495.75;390.90;;;;;;;9.30;52.39;102103.81;690431;28;44381;-65
2022/03/28 00:21:51;;;;;;;497.45;399.52;;;;;;;9.31;52.40;102104.66;689958;28;42204;-65
2022/03/28 00:22:13;;;;;;;489.95;365.92;;;;;;;9.33;52.45;102111.63;691144;28;22389;-65
2022/03/28 00:22:34;;;;;;;477.40;292.75;;;;;;;9.33;52.36;102111.63;690633;28;46377;-65
2022/03/28 00:22:55;;;;;;;477.05;291.80;;;;;;;9.34;52.14;102107.97;691432;28;23418;-65
2022/03/28 00:23:16;;;;;;;476.80;290.10;;;;;;;9.33;52.40;102106.25;691416;28;23467;-65
2022/03/28 00:23:39;;;;;;;476.73;297.63;;;;;;;9.33;52.16;102106.25;691557;28;22379;-65
2022/03/28 00:24:00;;;;;;;477.63;302.90;;;;;;;9.32;52.46;102104.53;690974;28;46982;-65
2022/03/28 00:24:21;;;;;;;477.70;302.33;;;;;;;9.31;52.08;102102.84;690718;28;22471;-65
2022/03/28 00:24:43;;;;;;;479.98;304.98;;;;;;;9.30;52.23;102106.50;690447;28;46321;-65
2022/03/28 00:25:05;;;;;;;479.40;305.73;;;;;;;9.29;52.46;102104.81;690454;28;44402;-65
2022/03/28 00:25:26;;;;;;;478.92;307.60;;;;;;;9.29;52.62;102103.97;690515;28;46673;-65
2022/03/28 00:25:48;;;;;;;478.75;305.50;;;;;;;9.28;52.29;102110.31;691672;28;21549;-65
2022/03/28 00:26:10;;;;;;;480.83;316.92;;;;;;;9.27;52.24;102103.25;690913;28;46312;-65
2022/03/28 00:26:31;;;;;;;484.67;334.52;;;;;;;9.25;52.57;102106.06;689900;28;46372;-65
2022/03/28 00:26:54;;;;;;;482.90;324.48;;;;;;;9.26;52.56;102106.91;690873;28;22436;-65
2022/03/28 00:27:17;;;;;;;485.90;338.65;;;;;;;9.25;52.68;102107.91;689348;28;69434;-65
2022/03/28 00:27:39;;;;;;;485.63;341.23;;;;;;;9.25;52.62;102105.19;690328;28;67387;-65
2022/03/28 00:28:01;;;;;;;484.17;335.95;;;;;;;9.23;52.43;102105.34;690689;28;47419;-65
2022/03/28 00:28:23;;;;;;;488.33;355.52;;;;;;;9.21;52.65;102099.22;690208;28;46287;-65
2022/03/28 00:28:44;;;;;;;488.58;352.75;;;;;;;9.24;52.68;102106.22;690321;28;45444;-65
2022/03/28 00:29:05;;;;;;;487.23;347.92;;;;;;;9.17;52.69;102095.97;691190;28;23987;-65
2022/03/28 00:29:28;;;;;;;489.02;353.58;;;;;;;9.22;52.66;102102.81;687610;28;46330;-65
2022/03/28 00:29:49;;;;;;;494.73;365.90;;;;;;;9.21;52.77;102104.63;683475;28;44379;-65
2022/03/28 00:30:10;;;;;;;492.55;370.65;;;;;;;9.21;52.42;102104.63;687483;28;22364;-65
2022/03/28 00:30:32;;;;;;;491.40;371.75;;;;;;;9.20;52.53;102106.47;689014;28;23474;-65
2022/03/28 00:30:54;;;;;;;491.20;369.48;;;;;;;9.20;52.60;102102.94;687940;28;44294;-65
2022/03/28 00:31:15;;;;;;;491.67;368.70;;;;;;;9.19;52.44;102104.75;688750;28;22358;-65
2022/03/28 00:31:36;;;;;;;491.42;364.15;;;;;;;9.19;52.71;102103.91;688581;28;46457;-65
2022/03/28 00:31:57;;;;;;;490.52;363.10;;;;;;;9.18;52.68;102102.19;692876;28;21513;-65
2022/03/28 00:32:19;;;;;;;491.02;364.27;;;;;;;9.18;52.69;102104.91;691030;28;22393;-65
2022/03/28 00:32:40;;;;;;;491.50;369.40;;;;;;;9.17;52.66;102097.81;690263;28;44405;-65
2022/03/28 00:33:01;;;;;;;491.55;366.98;;;;;;;9.16;52.90;102105.03;690919;28;22404;-65
2022/03/28 00:33:23;;;;;;;492.48;369.17;;;;;;;9.15;52.71;102106.03;691113;28;22389;-65
2022/03/28 00:33:45;;;;;;;491.42;370.35;;;;;;;9.16;52.64;102096.94;691574;28;21642;-65
2022/03/28 00:34:07;;;;;;;491.98;370.67;;;;;;;9.15;52.90;102103.34;689446;28;69368;-65
2022/03/28 00:34:28;;;;;;;491.80;370.20;;;;;;;9.13;52.63;102102.59;690204;28;46465;-65
2022/03/28 00:34:49;;;;;;;491.65;369.00;;;;;;;9.14;52.80;102100.78;691671;28;22078;-65
2022/03/28 00:35:10;;;;;;;491.13;365.52;;;;;;;9.13;53.03;102099.91;691142;28;23525;-65
2022/03/28 00:35:33;;;;;;;491.80;368.50;;;;;;;9.13;53.13;102104.44;691470;28;22379;-65
2022/03/28 00:35:54;;;;;;;491.75;365.50;;;;;;;9.13;52.73;102102.59;690050;28;70163;-65
2022/03/28 00:36:16;;;;;;;492.52;368.00;;;;;;;9.13;52.98;102101.75;691190;28;20883;-65
2022/03/28 00:36:37;;;;;;;492.35;368.02;;;;;;;9.12;53.13;102106.31;689900;28;46863;-65
2022/03/28 00:36:59;;;;;;;491.10;366.38;;;;;;;9.12;53.01;102100.03;691419;28;23445;-65
2022/03/28 00:37:20;;;;;;;491.00;368.75;;;;;;;9.11;52.96;102104.59;690523;28;46373;-65
2022/03/28 00:37:41;;;;;;;493.45;374.95;;;;;;;9.10;53.14;102102.03;691608;28;22397;-65
2022/03/28 00:38:03;;;;;;;493.20;375.73;;;;;;;9.10;52.97;102102.03;691574;28;21524;-65
2022/03/28 00:38:24;;;;;;;492.95;373.25;;;;;;;9.09;52.98;102103.88;690009;28;46357;-65
2022/03/28 00:38:48;;;;;;;491.25;368.15;;;;;;;9.07;53.06;102097.75;690373;28;46594;-65
2022/03/28 00:39:09;;;;;;;493.08;371.17;;;;;;;9.08;53.11;102101.31;689057;28;69715;-65
2022/03/28 00:39:30;;;;;;;494.02;373.95;;;;;;;9.07;53.07;102102.28;690481;28;22208;-65
2022/03/28 00:39:52;;;;;;;495.20;373.83;;;;;;;9.06;53.12;102095.19;690874;28;23497;-65
2022/03/28 00:40:15;;;;;;;492.25;370.75;;;;;;;9.05;53.08;102094.34;691005;28;23411;-65
2022/03/28 00:40:36;;;;;;;492.90;369.23;;;;;;;9.05;52.82;102099.72;689838;28;67471;-65
2022/03/28 00:40:57;;;;;;;491.65;368.52;;;;;;;9.05;52.97;102098.88;691451;28;23280;-65
2022/03/28 00:41:18;;;;;;;492.55;369.33;;;;;;;9.04;53.21;102102.56;690408;28;44406;-65
2022/03/28 00:41:41;;;;;;;493.27;374.63;;;;;;;9.04;53.21;102098.00;689992;28;21089;-65
2022/03/28 00:42:02;;;;;;;492.63;372.25;;;;;;;9.04;53.28;102091.78;690307;28;44133;-65
2022/03/28 00:42:23;;;;;;;494.70;375.08;;;;;;;9.01;53.15;102091.06;689723;28;45352;-65
2022/03/28 00:42:45;;;;;;;494.15;376.05;;;;;;;9.02;53.04;102091.91;691349;28;23626;-65
2022/03/28 00:43:08;;;;;;;493.40;373.83;;;;;;;9.02;53.06;102098.16;690366;28;44432;-65
2022/03/28 00:43:30;;;;;;;494.60;377.13;;;;;;;9.03;53.15;102101.72;689310;28;69377;-65
2022/03/28 00:43:55;;;;;;;493.35;373.52;;;;;;;9.04;52.85;102094.47;690970;28;44344;-65
2022/03/28 00:44:17;;;;;;;492.20;371.83;;;;;;;9.01;53.23;102099.16;687322;28;115270;-65
2022/03/28 00:44:38;;;;;;;492.55;371.80;;;;;;;9.01;52.99;102093.75;690695;28;45479;-65
2022/03/28 00:45:00;;;;;;;490.75;370.88;;;;;;;9.01;53.11;102091.06;696944;28;21423;-65
2022/03/28 00:45:21;;;;;;;491.15;372.27;;;;;;;9.00;53.23;102099.28;695128;28;45495;-65
2022/03/28 00:45:43;;;;;;;491.38;370.27;;;;;;;8.96;53.21;102090.59;695939;28;23547;-65
2022/03/28 00:46:04;;;;;;;489.55;369.00;;;;;;;8.99;53.02;102092.19;695717;28;44362;-65
2022/03/28 00:46:27;;;;;;;490.67;370.67;;;;;;;8.98;53.23;102094.03;696329;28;21183;-65
2022/03/28 00:46:48;;;;;;;492.75;375.27;;;;;;;8.98;53.15;102090.47;693116;28;69353;-65
2022/03/28 00:47:09;;;;;;;491.45;372.67;;;;;;;8.98;53.09;102090.47;691529;28;23426;-65
2022/03/28 00:47:30;;;;;;;492.45;372.15;;;;;;;8.98;53.07;102091.34;691137;28;23769;-65
2022/03/28 00:47:51;;;;;;;492.60;373.70;;;;;;;8.99;53.27;102086.78;690956;28;22323;-65
2022/03/28 00:48:13;;;;;;;493.35;373.65;;;;;;;8.98;52.98;102088.63;690641;28;23481;-66
2022/03/28 00:48:35;;;;;;;493.38;372.00;;;;;;;8.97;53.13;102095.00;691245;28;22403;-65
2022/03/28 00:48:56;;;;;;;493.42;375.92;;;;;;;8.97;53.04;102089.63;690379;28;45491;-65
2022/03/28 00:49:17;;;;;;;493.57;377.07;;;;;;;8.96;53.34;102084.34;690647;28;39672;-65
2022/03/28 00:49:38;;;;;;;495.88;378.48;;;;;;;8.96;53.12;102081.66;690165;28;44227;-65
2022/03/28 00:50:00;;;;;;;496.40;378.63;;;;;;;8.95;53.20;102091.59;691258;28;22419;-65
2022/03/28 00:50:21;;;;;;;494.13;378.85;;;;;;;8.94;52.93;102084.50;690005;28;45172;-65
2022/03/28 00:50:42;;;;;;;493.50;376.35;;;;;;;8.95;53.20;102093.41;691644;28;22138;-65
2022/03/28 00:51:03;;;;;;;493.33;377.02;;;;;;;8.93;53.10;102082.78;690890;28;22179;-65
2022/03/28 00:51:27;;;;;;;493.60;377.00;;;;;;;8.93;53.16;102082.78;690919;28;22427;-65
2022/03/28 00:51:48;;;;;;;494.48;378.75;;;;;;;8.95;53.03;102085.34;688522;28;90319;-65
2022/03/28 00:52:09;;;;;;;493.67;378.90;;;;;;;8.95;53.08;102080.81;691710;28;23383;-65
2022/03/28 00:52:30;;;;;;;493.52;378.15;;;;;;;8.96;53.11;102084.34;691424;28;23257;-65
2022/03/28 00:52:51;;;;;;;493.42;379.02;;;;;;;8.94;53.21;102081.81;691354;28;22358;-65
2022/03/28 00:53:14;;;;;;;494.20;380.35;;;;;;;8.96;53.04;102079.81;691441;28;22302;-65
2022/03/28 00:53:35;;;;;;;493.63;381.55;;;;;;;8.96;53.20;102087.06;689869;28;69261;-65
2022/03/28 00:53:57;;;;;;;493.92;382.85;;;;;;;8.97;53.22;102088.78;691398;28;22402;-64
2022/03/28 00:54:19;;;;;;;494.40;384.10;;;;;;;8.97;53.18;102080.69;690121;28;44188;-65
2022/03/28 00:54:41;;;;;;;495.20;382.85;;;;;;;8.95;53.21;102077.25;690959;28;22377;-65
2022/03/28 00:55:03;;;;;;;494.20;387.27;;;;;;;8.95;53.21;102083.50;689759;28;67485;-65
2022/03/28 00:55:24;;;;;;;494.75;388.25;;;;;;;8.95;53.05;102080.81;690355;28;46247;-65
2022/03/28 00:55:45;;;;;;;493.95;386.40;;;;;;;8.96;53.16;102081.66;692089;28;4112;-65
2022/03/28 00:56:07;;;;;;;494.05;384.73;;;;;;;8.94;53.34;102076.41;691275;28;23397;-65
2022/03/28 00:56:29;;;;;;;496.57;392.40;;;;;;;8.95;53.31;102080.81;690843;28;22391;-65
2022/03/28 00:56:50;;;;;;;496.75;394.27;;;;;;;8.92;53.23;102075.69;689717;28;46415;-65
2022/03/28 00:57:11;;;;;;;496.92;391.55;;;;;;;8.94;53.44;102080.97;690645;28;46217;-65
2022/03/28 00:57:33;;;;;;;495.23;388.55;;;;;;;8.93;53.29;102072.00;691432;28;23430;-65
2022/03/28 00:57:54;;;;;;;496.27;392.00;;;;;;;8.92;53.47;102081.09;691347;28;23551;-65
2022/03/28 00:58:16;;;;;;;495.77;392.63;;;;;;;8.91;53.25;102078.53;690118;28;45384;-65
2022/03/28 00:58:38;;;;;;;498.88;400.60;;;;;;;8.91;53.51;102076.69;690376;28;46450;-66
2022/03/28 00:58:59;;;;;;;496.42;391.58;;;;;;;8.92;53.35;102072.13;690580;28;46391;-65
2022/03/28 00:59:20;;;;;;;495.05;388.02;;;;;;;8.91;53.36;102073.97;691331;28;22410;-65
2022/03/28 00:59:42;;;;;;;497.52;383.85;;;;;;;8.90;53.50;102074.13;690851;28;21479;-65
2022/03/28 01:00:09;;;;;;;496.63;384.58;;;;;;;8.86;53.64;102070.00;690571;28;46403;-65
2022/03/28 01:00:30;;;;;;;496.27;384.70;;;;;;;8.84;53.54;102067.44;686835;28;138121;-65
2022/03/28 01:00:52;;;;;;;495.35;381.95;;;;;;;8.86;53.60;102070.84;691365;28;22463;-65
2022/03/28 01:01:13;;;;;;;494.50;383.48;;;;;;;8.89;53.65;102075.97;689790;28;46328;-65
2022/03/28 01:01:34;;;;;;;495.00;387.48;;;;;;;8.88;53.73;102068.00;690503;28;22409;-65
2022/03/28 01:01:55;;;;;;;494.40;383.05;;;;;;;8.87;53.53;102074.38;691850;28;1018;-65
2022/03/28 01:02:17;;;;;;;494.40;381.67;;;;;;;8.85;53.52;102074.50;690444;28;23440;-65
2022/03/28 01:02:39;;;;;;;495.67;382.55;;;;;;;8.83;53.77;102066.56;690508;28;44389;-65
2022/03/28 01:03:00;;;;;;;495.65;387.85;;;;;;;8.83;53.52;102065.72;691414;28;23459;-65
2022/03/28 01:03:21;;;;;;;496.45;388.15;;;;;;;8.83;53.64;102065.72;690121;28;45940;-65
2022/03/28 01:03:43;;;;;;;494.83;385.05;;;;;;;8.82;53.77;102072.09;691458;28;23438;-65
2022/03/28 01:04:08;;;;;;;487.60;343.65;;;;;;;8.82;54.19;102072.97;689974;28;45246;-65
2022/03/28 01:04:29;;;;;;;475.85;278.30;;;;;;;8.80;53.70;102065.97;687832;28;114859;-65
2022/03/28 01:04:50;;;;;;;475.20;280.73;;;;;;;8.80;53.81;102065.97;691235;28;21273;-65
2022/03/28 01:05:12;;;;;;;475.98;284.92;;;;;;;8.79;53.76;102062.44;691696;28;21516;-65
2022/03/28 01:05:34;;;;;;;479.10;293.67;;;;;;;8.79;53.74;102065.13;690526;28;45246;-65
2022/03/28 01:05:55;;;;;;;478.02;295.58;;;;;;;8.80;53.71;102063.28;690263;28;45076;-65
2022/03/28 01:06:17;;;;;;;478.75;296.60;;;;;;;8.79;53.73;102058.88;690096;28;23483;-65
2022/03/28 01:06:39;;;;;;;478.05;295.15;;;;;;;8.79;53.68;102058.88;690554;28;21549;-65
2022/03/28 01:07:01;;;;;;;476.95;292.85;;;;;;;8.81;53.62;102060.47;690116;28;67581;-65
2022/03/28 01:07:23;;;;;;;476.90;289.73;;;;;;;8.82;53.73;102059.50;690245;28;45064;-65
2022/03/28 01:07:44;;;;;;;483.70;326.42;;;;;;;8.82;53.76;102059.50;690813;28;45229;-65
2022/03/28 01:08:05;;;;;;;488.02;353.90;;;;;;;8.83;53.60;102061.19;691370;28;23468;-65
2022/03/28 01:08:27;;;;;;;488.30;351.88;;;;;;;8.83;53.51;102057.63;690811;28;21978;-65
2022/03/28 01:08:48;;;;;;;489.00;354.30;;;;;;;8.84;53.66;102062.06;690715;28;46275;-65
2022/03/28 01:09:09;;;;;;;489.58;355.38;;;;;;;8.85;53.76;102061.03;691274;28;22381;-65
2022/03/28 01:09:30;;;;;;;489.08;350.40;;;;;;;8.85;53.72;102061.03;691099;28;23495;-65
2022/03/28 01:09:54;;;;;;;490.20;350.90;;;;;;;8.86;53.48;102062.75;691180;28;23467;-65
2022/03/28 01:10:15;;;;;;;487.42;348.10;;;;;;;8.86;53.57;102056.53;688649;28;92227;-65
2022/03/28 01:10:37;;;;;;;487.10;345.25;;;;;;;8.86;53.90;102065.44;690812;28;21538;-65
2022/03/28 01:11:03;;;;;;;482.15;319.20;;;;;;;8.86;53.74;102049.28;690393;28;46201;-65
2022/03/28 01:11:26;;;;;;;473.95;275.50;;;;;;;8.83;53.60;102049.56;687361;28;137867;-65
2022/03/28 01:11:48;;;;;;;477.05;282.75;;;;;;;8.89;53.61;102054.41;689344;28;46616;-65
2022/03/28 01:12:10;;;;;;;472.63;272.67;;;;;;;8.92;53.73;102053.28;689295;28;69370;-65
2022/03/28 01:12:34;;;;;;;473.73;279.20;;;;;;;8.94;53.51;102054.00;690440;28;45118;-65
2022/03/28 01:12:57;;;;;;;475.58;289.63;;;;;;;8.95;53.48;102045.78;688526;28;92197;-65
2022/03/28 01:13:19;;;;;;;476.55;297.58;;;;;;;8.94;53.66;102049.47;689606;28;67471;-65
2022/03/28 01:13:42;;;;;;;476.17;286.77;;;;;;;8.94;53.72;102052.16;690265;28;46302;-65
2022/03/28 01:14:03;;;;;;;473.48;272.98;;;;;;;8.95;53.46;102053.88;690292;28;46394;-65
2022/03/28 01:14:25;;;;;;;473.58;274.10;;;;;;;8.95;53.57;102051.19;690344;28;46327;-65
2022/03/28 01:14:47;;;;;;;473.33;274.02;;;;;;;8.95;53.55;102051.19;690046;28;46328;-65
2022/03/28 01:15:08;;;;;;;475.27;281.15;;;;;;;8.96;53.45;102049.34;690257;28;45244;-65
2022/03/28 01:15:30;;;;;;;475.33;280.85;;;;;;;8.97;53.29;102046.50;691039;28;23474;-65
2022/03/28 01:15:51;;;;;;;476.30;285.95;;;;;;;8.96;53.30;102050.16;690720;28;46215;-65
2022/03/28 01:16:12;;;;;;;473.55;272.45;;;;;;;8.96;53.64;102049.34;690974;28;23433;-65
2022/03/28 01:18:05;;;;;;;473.27;267.33;;;;;;;8.93;53.54;102042.34;690548;28;21503;-65
2022/03/28 01:18:08;;;;;;;472.95;272.45;;;;;;;8.95;53.39;102050.31;687389;28;136046;-65
2022/03/28 01:18:30;;;;;;;473.73;273.25;;;;;;;8.94;53.79;102046.78;686961;28;138281;-65
2022/03/28 01:18:52;;;;;;;475.30;275.63;;;;;;;8.95;53.46;102044.91;690724;28;23503;-65
2022/03/28 01:19:13;;;;;;;473.67;274.90;;;;;;;8.92;53.67;102042.50;690557;28;46479;-65
2022/03/28 01:19:34;;;;;;;474.60;266.45;;;;;;;8.91;53.44;102043.50;689507;28;46275;-65
2022/03/28 01:19:55;;;;;;;476.77;271.10;;;;;;;8.92;53.41;102040.66;691397;28;19014;-65
2022/03/28 01:20:16;;;;;;;475.27;280.52;;;;;;;8.92;53.55;102039.78;691503;28;21389;-65
2022/03/28 01:20:39;;;;;;;474.65;275.92;;;;;;;8.91;53.57;102046.19;691326;28;20888;-65
2022/03/28 01:21:02;;;;;;;475.55;279.38;;;;;;;8.91;53.47;102046.19;689532;28;69717;-65
2022/03/28 01:21:24;;;;;;;476.30;283.90;;;;;;;8.90;53.69;102042.63;688951;28;70371;-65
2022/03/28 01:21:45;;;;;;;474.88;283.27;;;;;;;8.88;53.80;102043.75;690530;28;22414;-65
2022/03/28 01:22:06;;;;;;;473.77;278.07;;;;;;;8.88;53.78;102047.31;691429;28;21500;-65
2022/03/28 01:22:28;;;;;;;471.23;260.85;;;;;;;8.87;53.61;102039.34;690076;28;44350;-65
2022/03/28 01:22:49;;;;;;;471.95;264.60;;;;;;;8.86;53.64;102043.91;690665;28;46531;-65
2022/03/28 01:23:11;;;;;;;472.38;268.60;;;;;;;8.88;53.59;102046.47;691004;28;23406;-65
2022/03/28 01:23:32;;;;;;;474.70;280.88;;;;;;;8.87;53.56;102045.63;691249;28;22349;-65
2022/03/28 01:23:54;;;;;;;475.60;285.05;;;;;;;8.87;53.67;102039.34;690370;28;44460;-65
2022/03/28 01:24:15;;;;;;;476.33;287.85;;;;;;;8.88;53.83;102044.59;690514;28;46425;-65
2022/03/28 01:24:36;;;;;;;474.65;276.40;;;;;;;8.86;53.59;102041.22;691073;28;21508;-65
2022/03/28 01:25:00;;;;;;;475.08;281.50;;;;;;;8.84;53.62;102046.72;691519;28;22408;-65
2022/03/28 01:25:23;;;;;;;473.00;270.85;;;;;;;8.84;53.75;102043.19;689186;28;69690;-65
2022/03/28 01:25:51;;;;;;;472.05;266.88;;;;;;;8.83;53.59;102039.63;691428;28;15251;-65
2022/03/28 01:26:12;;;;;;;476.10;286.83;;;;;;;8.87;53.58;102045.63;687139;28;137284;-65
2022/03/28 01:26:34;;;;;;;475.73;284.67;;;;;;;8.88;53.76;102044.59;690403;28;23479;-65
2022/03/28 01:26:55;;;;;;;474.08;274.10;;;;;;;8.87;53.79;102039.34;690315;28;46323;-65
2022/03/28 01:27:17;;;;;;;475.92;284.30;;;;;;;8.88;53.54;102038.38;691007;28;21519;-65
2022/03/28 01:27:39;;;;;;;481.08;308.13;;;;;;;8.88;53.73;102038.38;690412;28;44376;-65
2022/03/28 01:28:01;;;;;;;478.70;296.42;;;;;;;8.88;53.69;102041.06;690525;28;43732;-65
2022/03/28 01:28:25;;;;;;;476.13;285.48;;;;;;;8.89;53.47;102042.78;690831;28;45165;-65
2022/03/28 01:28:46;;;;;;;471.90;264.92;;;;;;;8.89;53.59;102037.41;688422;28;92047;-65
2022/03/28 01:29:08;;;;;;;472.55;268.60;;;;;;;8.87;53.57;102042.94;691321;28;22424;-65
2022/03/28 01:29:29;;;;;;;473.27;270.00;;;;;;;8.87;53.71;102036.66;689563;28;46401;-65
2022/03/28 01:29:50;;;;;;;479.27;285.02;;;;;;;8.88;53.49;102041.06;690445;28;21513;-65
2022/03/28 01:30:13;;;;;;;475.75;284.45;;;;;;;8.88;53.51;102047.31;690954;28;23207;-66
2022/03/28 01:30:34;;;;;;;477.92;300.92;;;;;;;8.86;53.48;102041.22;689384;28;69370;-65
2022/03/28 01:30:55;;;;;;;489.55;351.85;;;;;;;8.85;53.36;102039.50;691317;28;22417;-65
2022/03/28 01:31:17;;;;;;;490.10;360.17;;;;;;;8.84;53.68;102038.66;691159;28;22379;-65
2022/03/28 01:31:38;;;;;;;491.70;366.73;;;;;;;8.83;53.62;102036.94;689352;28;44373;-65
2022/03/28 01:31:59;;;;;;;490.30;366.92;;;;;;;8.82;53.69;102037.94;691224;28;21542;-65
2022/03/28 01:32:21;;;;;;;491.45;372.10;;;;;;;8.82;53.70;102039.75;690821;28;24421;-65
2022/03/28 01:32:42;;;;;;;493.50;375.35;;;;;;;8.81;53.55;102035.38;690257;28;45621;-65
2022/03/28 01:33:04;;;;;;;494.63;382.10;;;;;;;8.81;53.82;102035.38;691122;28;23473;-65
2022/03/28 01:33:25;;;;;;;494.88;383.00;;;;;;;8.80;53.61;102036.34;690185;28;46229;-65
2022/03/28 01:33:46;;;;;;;494.75;382.35;;;;;;;8.78;53.62;102036.47;691122;28;22250;-65
2022/03/28 01:34:15;;;;;;;495.70;389.15;;;;;;;8.78;53.62;102035.63;689733;28;23468;-65
2022/03/28 01:34:38;;;;;;;495.17;389.50;;;;;;;8.79;53.70;102037.31;687267;28;137671;-65
2022/03/28 01:34:59;;;;;;;494.65;390.50;;;;;;;8.79;53.88;102031.94;690218;28;46602;-65
2022/03/28 01:35:28;;;;;;;491.60;375.35;;;;;;;8.79;53.51;102038.19;690755;28;22413;-65
2022/03/28 01:35:52;;;;;;;472.80;277.25;;;;;;;8.79;53.81;102040.03;687065;28;139024;-65
2022/03/28 01:36:19;;;;;;;472.65;273.60;;;;;;;8.81;53.72;102040.75;688031;28;93137;-65
2022/03/28 01:36:40;;;;;;;477.27;301.55;;;;;;;8.79;53.65;102035.50;686633;28;138045;-65
2022/03/28 01:37:01;;;;;;;487.73;360.67;;;;;;;8.79;53.76;102034.63;690788;28;23474;-65
2022/03/28 01:37:22;;;;;;;490.40;374.85;;;;;;;8.80;53.70;102033.66;691209;28;22493;-65
2022/03/28 01:37:45;;;;;;;492.67;382.40;;;;;;;8.78;53.58;102033.78;690487;28;44426;-65
2022/03/28 01:38:07;;;;;;;492.98;377.60;;;;;;;8.80;53.72;102039.03;689681;28;46297;-65
2022/03/28 01:38:29;;;;;;;494.88;383.20;;;;;;;8.80;53.85;102028.28;690148;28;44564;-65
2022/03/28 01:38:50;;;;;;;493.15;378.13;;;;;;;8.76;53.62;102024.13;690138;28;46436;-66
2022/03/28 01:39:11;;;;;;;495.05;385.67;;;;;;;8.79;53.69;102034.63;690685;28;22415;-65
2022/03/28 01:39:32;;;;;;;498.08;392.92;;;;;;;8.77;53.87;102034.75;690961;28;23448;-65
2022/03/28 01:39:53;;;;;;;499.95;394.02;;;;;;;8.76;53.92;102034.91;690860;28;22340;-65
2022/03/28 01:40:15;;;;;;;497.92;396.10;;;;;;;8.75;53.73;102038.59;690232;28;22406;-65